sensor_id;sensor_type;location;lat;lon;timestamp;P1;durP1;ratioP1;P2;durP2;ratioP2
2896;SDS011;1458;49.728;9.228;2023-07-20T00:01:33;0.10;;;0.10;;
2896;SDS011;1458;49.728;9.228;2023-07-20T00:04:01;0.10;;;0.10;;
2896;SDS011;1458;49.728;9.228;2023-07-20T00:06:28;0.10;;;0.10;;
2896;SDS011;1458;49.728;9.228;2023-07-20T00:08:56;0.10;;;0.10;;
2896;SDS011;1458;49.728;9.228;2023-07-20T00:11:26;0.10;;;0.10;;
2896;SDS011;1458;49.728;9.228;2023-07-20T00:13:54;0.10;;;0.10;;
2896;SDS011;1458;49.728;9.228;2023-07-20T00:16:21;0.10;;;0.10;;
2896;SDS011;1458;49.728;9.228;2023-07-20T00:18:49;0.10;;;0.10;;
2896;SDS011;1458;49.728;9.228;2023-07-20T00:21:16;0.10;;;0.10;;
2896;SDS011;1458;49.728;9.228;2023-07-20T00:23:44;0.10;;;0.10;;
2896;SDS011;1458;49.728;9.228;2023-07-20T00:26:11;0.10;;;0.10;;
2896;SDS011;1458;49.728;9.228;2023-07-20T00:28:40;0.10;;;0.10;;
2896;SDS011;1458;49.728;9.228;2023-07-20T00:31:08;0.10;;;0.10;;
2896;SDS011;1458;49.728;9.228;2023-07-20T00:33:36;0.10;;;0.10;;
2896;SDS011;1458;49.728;9.228;2023-07-20T00:36:03;0.10;;;0.10;;
2896;SDS011;1458;49.728;9.228;2023-07-20T00:38:31;0.10;;;0.10;;
2896;SDS011;1458;49.728;9.228;2023-07-20T00:40:58;0.10;;;0.10;;
2896;SDS011;1458;49.728;9.228;2023-07-20T00:43:26;0.10;;;0.10;;
2896;SDS011;1458;49.728;9.228;2023-07-20T00:45:55;0.10;;;0.10;;
2896;SDS011;1458;49.728;9.228;2023-07-20T00:48:23;0.10;;;0.10;;
2896;SDS011;1458;49.728;9.228;2023-07-20T00:50:51;0.10;;;0.10;;
2896;SDS011;1458;49.728;9.228;2023-07-20T00:53:18;0.10;;;0.10;;
2896;SDS011;1458;49.728;9.228;2023-07-20T00:55:46;0.10;;;0.10;;
2896;SDS011;1458;49.728;9.228;2023-07-20T00:58:14;0.10;;;0.10;;
2896;SDS011;1458;49.728;9.228;2023-07-20T01:00:41;0.10;;;0.10;;
2896;SDS011;1458;49.728;9.228;2023-07-20T01:03:10;0.10;;;0.10;;
2896;SDS011;1458;49.728;9.228;2023-07-20T01:05:40;0.10;;;0.10;;
2896;SDS011;1458;49.728;9.228;2023-07-20T01:08:14;0.10;;;0.10;;
2896;SDS011;1458;49.728;9.228;2023-07-20T01:10:51;0.20;;;0.20;;
2896;SDS011;1458;49.728;9.228;2023-07-20T01:13:24;0.10;;;0.10;;
2896;SDS011;1458;49.728;9.228;2023-07-20T01:15:57;0.10;;;0.10;;
2896;SDS011;1458;49.728;9.228;2023-07-20T01:18:29;0.10;;;0.10;;
2896;SDS011;1458;49.728;9.228;2023-07-20T01:20:58;0.10;;;0.10;;
2896;SDS011;1458;49.728;9.228;2023-07-20T01:26:55;0.10;;;0.10;;
2896;SDS011;1458;49.728;9.228;2023-07-20T01:30:08;0.10;;;0.10;;
2896;SDS011;1458;49.728;9.228;2023-07-20T01:32:48;0.10;;;0.10;;
2896;SDS011;1458;49.728;9.228;2023-07-20T01:35:18;0.10;;;0.10;;
2896;SDS011;1458;49.728;9.228;2023-07-20T01:37:49;0.10;;;0.10;;
2896;SDS011;1458;49.728;9.228;2023-07-20T01:40:17;0.10;;;0.10;;
2896;SDS011;1458;49.728;9.228;2023-07-20T01:42:48;0.10;;;0.10;;
2896;SDS011;1458;49.728;9.228;2023-07-20T01:45:16;0.10;;;0.10;;
2896;SDS011;1458;49.728;9.228;2023-07-20T01:47:44;0.20;;;0.20;;
2896;SDS011;1458;49.728;9.228;2023-07-20T01:50:13;0.10;;;0.10;;
2896;SDS011;1458;49.728;9.228;2023-07-20T01:52:40;0.10;;;0.10;;
2896;SDS011;1458;49.728;9.228;2023-07-20T01:55:08;0.10;;;0.10;;
2896;SDS011;1458;49.728;9.228;2023-07-20T01:57:35;0.10;;;0.10;;
2896;SDS011;1458;49.728;9.228;2023-07-20T02:00:03;0.20;;;0.20;;
2896;SDS011;1458;49.728;9.228;2023-07-20T02:02:39;0.20;;;0.20;;
2896;SDS011;1458;49.728;9.228;2023-07-20T02:05:09;0.20;;;0.20;;
2896;SDS011;1458;49.728;9.228;2023-07-20T02:07:38;0.10;;;0.10;;
2896;SDS011;1458;49.728;9.228;2023-07-20T02:10:06;0.20;;;0.20;;
2896;SDS011;1458;49.728;9.228;2023-07-20T02:12:34;0.10;;;0.10;;
2896;SDS011;1458;49.728;9.228;2023-07-20T02:15:02;0.10;;;0.10;;
2896;SDS011;1458;49.728;9.228;2023-07-20T02:17:31;0.10;;;0.10;;
2896;SDS011;1458;49.728;9.228;2023-07-20T02:19:58;0.20;;;0.20;;
2896;SDS011;1458;49.728;9.228;2023-07-20T02:22:26;0.20;;;0.20;;
2896;SDS011;1458;49.728;9.228;2023-07-20T02:24:55;0.10;;;0.10;;
2896;SDS011;1458;49.728;9.228;2023-07-20T02:27:22;0.20;;;0.20;;
2896;SDS011;1458;49.728;9.228;2023-07-20T02:29:49;0.10;;;0.10;;
2896;SDS011;1458;49.728;9.228;2023-07-20T02:32:17;0.20;;;0.20;;
2896;SDS011;1458;49.728;9.228;2023-07-20T02:34:44;0.17;;;0.17;;
2896;SDS011;1458;49.728;9.228;2023-07-20T02:37:12;0.20;;;0.20;;
2896;SDS011;1458;49.728;9.228;2023-07-20T02:39:40;0.20;;;0.20;;
2896;SDS011;1458;49.728;9.228;2023-07-20T02:42:09;0.20;;;0.20;;
2896;SDS011;1458;49.728;9.228;2023-07-20T02:44:36;0.20;;;0.20;;
2896;SDS011;1458;49.728;9.228;2023-07-20T02:47:04;0.20;;;0.20;;
2896;SDS011;1458;49.728;9.228;2023-07-20T02:49:33;0.20;;;0.20;;
2896;SDS011;1458;49.728;9.228;2023-07-20T02:52:01;0.20;;;0.20;;
2896;SDS011;1458;49.728;9.228;2023-07-20T02:54:28;0.10;;;0.10;;
2896;SDS011;1458;49.728;9.228;2023-07-20T02:56:56;0.20;;;0.20;;
2896;SDS011;1458;49.728;9.228;2023-07-20T02:59:25;0.20;;;0.20;;
2896;SDS011;1458;49.728;9.228;2023-07-20T03:01:55;0.20;;;0.20;;
2896;SDS011;1458;49.728;9.228;2023-07-20T03:04:25;0.20;;;0.20;;
2896;SDS011;1458;49.728;9.228;2023-07-20T03:06:53;0.20;;;0.20;;
2896;SDS011;1458;49.728;9.228;2023-07-20T03:09:20;0.20;;;0.20;;
2896;SDS011;1458;49.728;9.228;2023-07-20T03:11:49;0.20;;;0.20;;
2896;SDS011;1458;49.728;9.228;2023-07-20T03:14:17;0.20;;;0.20;;
2896;SDS011;1458;49.728;9.228;2023-07-20T03:16:46;0.20;;;0.20;;
2896;SDS011;1458;49.728;9.228;2023-07-20T03:19:13;0.13;;;0.13;;
2896;SDS011;1458;49.728;9.228;2023-07-20T03:21:41;0.20;;;0.20;;
2896;SDS011;1458;49.728;9.228;2023-07-20T03:24:08;0.20;;;0.20;;
2896;SDS011;1458;49.728;9.228;2023-07-20T03:26:36;0.20;;;0.20;;
2896;SDS011;1458;49.728;9.228;2023-07-20T03:29:04;0.10;;;0.10;;
2896;SDS011;1458;49.728;9.228;2023-07-20T03:31:32;0.20;;;0.20;;
2896;SDS011;1458;49.728;9.228;2023-07-20T03:34:01;0.20;;;0.20;;
2896;SDS011;1458;49.728;9.228;2023-07-20T03:36:29;0.10;;;0.10;;
2896;SDS011;1458;49.728;9.228;2023-07-20T03:38:56;0.10;;;0.10;;
2896;SDS011;1458;49.728;9.228;2023-07-20T03:41:24;0.20;;;0.20;;
2896;SDS011;1458;49.728;9.228;2023-07-20T03:43:51;0.20;;;0.20;;
2896;SDS011;1458;49.728;9.228;2023-07-20T03:46:19;0.20;;;0.20;;
2896;SDS011;1458;49.728;9.228;2023-07-20T03:48:47;0.20;;;0.20;;
2896;SDS011;1458;49.728;9.228;2023-07-20T03:51:16;0.20;;;0.20;;
2896;SDS011;1458;49.728;9.228;2023-07-20T03:53:43;0.20;;;0.20;;
2896;SDS011;1458;49.728;9.228;2023-07-20T03:56:11;0.20;;;0.20;;
2896;SDS011;1458;49.728;9.228;2023-07-20T03:58:38;0.20;;;0.20;;
2896;SDS011;1458;49.728;9.228;2023-07-20T04:01:06;0.20;;;0.20;;
2896;SDS011;1458;49.728;9.228;2023-07-20T04:03:35;0.10;;;0.10;;
2896;SDS011;1458;49.728;9.228;2023-07-20T04:06:02;0.20;;;0.20;;
2896;SDS011;1458;49.728;9.228;2023-07-20T04:08:31;0.30;;;0.30;;
2896;SDS011;1458;49.728;9.228;2023-07-20T04:11:00;0.20;;;0.20;;
2896;SDS011;1458;49.728;9.228;2023-07-20T04:13:28;0.20;;;0.20;;
2896;SDS011;1458;49.728;9.228;2023-07-20T04:15:58;0.20;;;0.20;;
2896;SDS011;1458;49.728;9.228;2023-07-20T04:18:26;0.30;;;0.30;;
2896;SDS011;1458;49.728;9.228;2023-07-20T04:20:53;0.20;;;0.20;;
2896;SDS011;1458;49.728;9.228;2023-07-20T04:23:20;0.23;;;0.23;;
2896;SDS011;1458;49.728;9.228;2023-07-20T04:25:50;0.20;;;0.20;;
2896;SDS011;1458;49.728;9.228;2023-07-20T04:28:19;0.20;;;0.20;;
2896;SDS011;1458;49.728;9.228;2023-07-20T04:30:48;0.20;;;0.20;;
2896;SDS011;1458;49.728;9.228;2023-07-20T04:33:16;0.20;;;0.20;;
2896;SDS011;1458;49.728;9.228;2023-07-20T04:35:46;0.10;;;0.10;;
2896;SDS011;1458;49.728;9.228;2023-07-20T04:38:18;0.10;;;0.10;;
2896;SDS011;1458;49.728;9.228;2023-07-20T04:40:55;0.20;;;0.20;;
2896;SDS011;1458;49.728;9.228;2023-07-20T04:43:23;0.30;;;0.30;;
2896;SDS011;1458;49.728;9.228;2023-07-20T04:45:51;0.40;;;0.40;;
2896;SDS011;1458;49.728;9.228;2023-07-20T04:48:19;0.70;;;0.70;;
2896;SDS011;1458;49.728;9.228;2023-07-20T04:50:49;1.33;;;1.33;;
2896;SDS011;1458;49.728;9.228;2023-07-20T04:53:17;1.80;;;1.80;;
2896;SDS011;1458;49.728;9.228;2023-07-20T04:55:49;2.90;;;2.90;;
2896;SDS011;1458;49.728;9.228;2023-07-20T04:58:20;4.00;;;4.00;;
2896;SDS011;1458;49.728;9.228;2023-07-20T05:00:49;5.40;;;5.40;;
2896;SDS011;1458;49.728;9.228;2023-07-20T05:03:19;6.90;;;6.80;;
2896;SDS011;1458;49.728;9.228;2023-07-20T05:05:47;8.20;;;8.10;;
2896;SDS011;1458;49.728;9.228;2023-07-20T05:08:15;8.83;;;8.63;;
2896;SDS011;1458;49.728;9.228;2023-07-20T05:10:42;8.83;;;8.63;;
2896;SDS011;1458;49.728;9.228;2023-07-20T05:13:10;8.30;;;8.20;;
2896;SDS011;1458;49.728;9.228;2023-07-20T05:15:39;7.67;;;7.57;;
2896;SDS011;1458;49.728;9.228;2023-07-20T05:18:11;6.93;;;6.83;;
2896;SDS011;1458;49.728;9.228;2023-07-20T05:20:38;6.17;;;6.17;;
2896;SDS011;1458;49.728;9.228;2023-07-20T05:23:06;5.93;;;5.93;;
2896;SDS011;1458;49.728;9.228;2023-07-20T05:25:33;6.30;;;6.30;;
2896;SDS011;1458;49.728;9.228;2023-07-20T05:28:01;5.20;;;5.20;;
2896;SDS011;1458;49.728;9.228;2023-07-20T05:30:28;5.43;;;5.43;;
2896;SDS011;1458;49.728;9.228;2023-07-20T05:32:57;5.17;;;5.17;;
2896;SDS011;1458;49.728;9.228;2023-07-20T05:35:25;4.87;;;4.87;;
2896;SDS011;1458;49.728;9.228;2023-07-20T05:37:53;4.07;;;4.07;;
2896;SDS011;1458;49.728;9.228;2023-07-20T05:40:20;3.93;;;3.93;;
2896;SDS011;1458;49.728;9.228;2023-07-20T05:42:48;3.70;;;3.70;;
2896;SDS011;1458;49.728;9.228;2023-07-20T05:45:17;4.07;;;4.07;;
2896;SDS011;1458;49.728;9.228;2023-07-20T05:47:45;3.60;;;3.60;;
2896;SDS011;1458;49.728;9.228;2023-07-20T05:50:15;2.90;;;2.90;;
2896;SDS011;1458;49.728;9.228;2023-07-20T05:52:42;3.17;;;3.17;;
2896;SDS011;1458;49.728;9.228;2023-07-20T05:55:10;3.47;;;3.47;;
2896;SDS011;1458;49.728;9.228;2023-07-20T05:57:37;3.60;;;3.60;;
2896;SDS011;1458;49.728;9.228;2023-07-20T06:00:08;3.70;;;3.70;;
2896;SDS011;1458;49.728;9.228;2023-07-20T06:02:37;3.90;;;3.90;;
2896;SDS011;1458;49.728;9.228;2023-07-20T06:05:06;3.80;;;3.80;;
2896;SDS011;1458;49.728;9.228;2023-07-20T06:07:37;3.23;;;3.23;;
2896;SDS011;1458;49.728;9.228;2023-07-20T06:10:05;3.40;;;3.40;;
2896;SDS011;1458;49.728;9.228;2023-07-20T06:12:33;3.20;;;3.20;;
2896;SDS011;1458;49.728;9.228;2023-07-20T06:15:02;2.90;;;2.90;;
2896;SDS011;1458;49.728;9.228;2023-07-20T06:17:31;3.03;;;3.03;;
2896;SDS011;1458;49.728;9.228;2023-07-20T06:19:58;3.27;;;3.27;;
2896;SDS011;1458;49.728;9.228;2023-07-20T06:22:27;4.30;;;4.30;;
2896;SDS011;1458;49.728;9.228;2023-07-20T06:24:56;4.40;;;4.40;;
2896;SDS011;1458;49.728;9.228;2023-07-20T06:27:23;3.70;;;3.70;;
2896;SDS011;1458;49.728;9.228;2023-07-20T06:29:50;2.90;;;2.90;;
2896;SDS011;1458;49.728;9.228;2023-07-20T06:32:18;3.07;;;3.07;;
2896;SDS011;1458;49.728;9.228;2023-07-20T06:34:45;3.53;;;3.53;;
2896;SDS011;1458;49.728;9.228;2023-07-20T06:37:13;2.90;;;2.90;;
2896;SDS011;1458;49.728;9.228;2023-07-20T06:39:40;4.27;;;4.27;;
2896;SDS011;1458;49.728;9.228;2023-07-20T06:42:09;5.10;;;5.10;;
2896;SDS011;1458;49.728;9.228;2023-07-20T06:44:36;5.20;;;5.20;;
2896;SDS011;1458;49.728;9.228;2023-07-20T06:47:04;6.40;;;6.40;;
2896;SDS011;1458;49.728;9.228;2023-07-20T06:49:32;7.00;;;6.90;;
2896;SDS011;1458;49.728;9.228;2023-07-20T06:52:00;6.80;;;6.70;;
2896;SDS011;1458;49.728;9.228;2023-07-20T06:54:27;7.07;;;6.97;;
2896;SDS011;1458;49.728;9.228;2023-07-20T06:56:55;7.10;;;7.00;;
2896;SDS011;1458;49.728;9.228;2023-07-20T06:59:24;6.50;;;6.50;;
2896;SDS011;1458;49.728;9.228;2023-07-20T07:01:51;6.50;;;6.50;;
2896;SDS011;1458;49.728;9.228;2023-07-20T07:04:18;7.57;;;7.47;;
2896;SDS011;1458;49.728;9.228;2023-07-20T07:06:46;7.50;;;7.40;;
2896;SDS011;1458;49.728;9.228;2023-07-20T07:09:13;7.93;;;7.83;;
2896;SDS011;1458;49.728;9.228;2023-07-20T07:11:41;7.77;;;7.67;;
2896;SDS011;1458;49.728;9.228;2023-07-20T07:14:08;8.90;;;8.70;;
2896;SDS011;1458;49.728;9.228;2023-07-20T07:16:37;8.90;;;8.70;;
2896;SDS011;1458;49.728;9.228;2023-07-20T07:19:05;8.30;;;8.20;;
2896;SDS011;1458;49.728;9.228;2023-07-20T07:21:32;8.60;;;8.50;;
2896;SDS011;1458;49.728;9.228;2023-07-20T07:24:00;9.80;;;9.60;;
2896;SDS011;1458;49.728;9.228;2023-07-20T07:26:29;9.80;;;9.60;;
2896;SDS011;1458;49.728;9.228;2023-07-20T07:28:56;11.27;;;10.97;;
2896;SDS011;1458;49.728;9.228;2023-07-20T07:31:24;10.20;;;10.00;;
2896;SDS011;1458;49.728;9.228;2023-07-20T07:33:53;11.17;;;10.87;;
2896;SDS011;1458;49.728;9.228;2023-07-20T07:36:21;11.30;;;11.00;;
2896;SDS011;1458;49.728;9.228;2023-07-20T07:38:50;11.73;;;11.43;;
2896;SDS011;1458;49.728;9.228;2023-07-20T07:41:17;12.50;;;12.10;;
2896;SDS011;1458;49.728;9.228;2023-07-20T07:43:45;12.40;;;12.00;;
2896;SDS011;1458;49.728;9.228;2023-07-20T07:46:13;12.53;;;12.13;;
2896;SDS011;1458;49.728;9.228;2023-07-20T07:48:41;12.63;;;12.23;;
2896;SDS011;1458;49.728;9.228;2023-07-20T07:51:10;12.50;;;12.10;;
2896;SDS011;1458;49.728;9.228;2023-07-20T07:53:39;12.53;;;12.13;;
2896;SDS011;1458;49.728;9.228;2023-07-20T07:56:07;11.83;;;11.53;;
2896;SDS011;1458;49.728;9.228;2023-07-20T07:58:34;11.80;;;11.50;;
2896;SDS011;1458;49.728;9.228;2023-07-20T08:01:02;11.63;;;11.33;;
2896;SDS011;1458;49.728;9.228;2023-07-20T08:03:30;12.10;;;11.80;;
2896;SDS011;1458;49.728;9.228;2023-07-20T08:05:57;11.93;;;11.63;;
2896;SDS011;1458;49.728;9.228;2023-07-20T08:08:26;12.03;;;11.73;;
2896;SDS011;1458;49.728;9.228;2023-07-20T08:10:54;12.03;;;11.73;;
2896;SDS011;1458;49.728;9.228;2023-07-20T08:13:21;11.93;;;11.63;;
2896;SDS011;1458;49.728;9.228;2023-07-20T08:15:49;12.53;;;12.13;;
2896;SDS011;1458;49.728;9.228;2023-07-20T08:18:17;11.90;;;11.60;;
2896;SDS011;1458;49.728;9.228;2023-07-20T08:20:45;12.03;;;11.73;;
2896;SDS011;1458;49.728;9.228;2023-07-20T08:23:13;11.80;;;11.50;;
2896;SDS011;1458;49.728;9.228;2023-07-20T08:25:41;11.90;;;11.60;;
2896;SDS011;1458;49.728;9.228;2023-07-20T08:28:10;12.70;;;12.30;;
2896;SDS011;1458;49.728;9.228;2023-07-20T08:30:42;12.07;;;11.77;;
2896;SDS011;1458;49.728;9.228;2023-07-20T08:33:12;12.57;;;12.17;;
2896;SDS011;1458;49.728;9.228;2023-07-20T08:35:41;12.10;;;11.80;;
2896;SDS011;1458;49.728;9.228;2023-07-20T08:38:09;11.80;;;11.50;;
2896;SDS011;1458;49.728;9.228;2023-07-20T08:40:39;12.23;;;11.87;;
2896;SDS011;1458;49.728;9.228;2023-07-20T08:43:10;11.70;;;11.40;;
2896;SDS011;1458;49.728;9.228;2023-07-20T08:45:38;11.70;;;11.40;;
2896;SDS011;1458;49.728;9.228;2023-07-20T08:48:07;11.70;;;11.40;;
2896;SDS011;1458;49.728;9.228;2023-07-20T08:50:35;12.00;;;11.70;;
2896;SDS011;1458;49.728;9.228;2023-07-20T08:53:04;11.80;;;11.50;;
2896;SDS011;1458;49.728;9.228;2023-07-20T08:55:33;11.60;;;11.30;;
2896;SDS011;1458;49.728;9.228;2023-07-20T08:58:03;12.30;;;11.93;;
2896;SDS011;1458;49.728;9.228;2023-07-20T09:00:35;12.53;;;12.13;;
2896;SDS011;1458;49.728;9.228;2023-07-20T09:03:03;12.03;;;11.73;;
2896;SDS011;1458;49.728;9.228;2023-07-20T09:05:32;12.40;;;12.00;;
2896;SDS011;1458;49.728;9.228;2023-07-20T09:08:00;12.70;;;12.30;;
2896;SDS011;1458;49.728;9.228;2023-07-20T09:10:29;12.43;;;12.03;;
2896;SDS011;1458;49.728;9.228;2023-07-20T09:12:56;11.80;;;11.50;;
2896;SDS011;1458;49.728;9.228;2023-07-20T09:15:25;12.20;;;11.90;;
2896;SDS011;1458;49.728;9.228;2023-07-20T09:17:52;11.87;;;11.57;;
2896;SDS011;1458;49.728;9.228;2023-07-20T09:20:20;11.90;;;11.60;;
2896;SDS011;1458;49.728;9.228;2023-07-20T09:22:48;11.63;;;11.33;;
2896;SDS011;1458;49.728;9.228;2023-07-20T09:25:18;12.30;;;11.93;;
2896;SDS011;1458;49.728;9.228;2023-07-20T09:27:47;12.57;;;12.17;;
2896;SDS011;1458;49.728;9.228;2023-07-20T09:30:16;12.53;;;12.13;;
2896;SDS011;1458;49.728;9.228;2023-07-20T09:32:45;12.80;;;12.40;;
2896;SDS011;1458;49.728;9.228;2023-07-20T09:35:14;12.43;;;12.03;;
2896;SDS011;1458;49.728;9.228;2023-07-20T09:37:45;13.73;;;13.33;;
2896;SDS011;1458;49.728;9.228;2023-07-20T09:40:17;13.43;;;13.03;;
2896;SDS011;1458;49.728;9.228;2023-07-20T09:42:45;12.60;;;12.20;;
2896;SDS011;1458;49.728;9.228;2023-07-20T09:45:13;12.70;;;12.30;;
2896;SDS011;1458;49.728;9.228;2023-07-20T09:47:41;12.60;;;12.20;;
2896;SDS011;1458;49.728;9.228;2023-07-20T09:50:10;12.87;;;12.47;;
2896;SDS011;1458;49.728;9.228;2023-07-20T09:52:38;12.60;;;12.20;;
2896;SDS011;1458;49.728;9.228;2023-07-20T09:55:09;12.90;;;12.50;;
2896;SDS011;1458;49.728;9.228;2023-07-20T09:57:40;12.70;;;12.30;;
2896;SDS011;1458;49.728;9.228;2023-07-20T10:00:08;12.97;;;12.57;;
2896;SDS011;1458;49.728;9.228;2023-07-20T10:02:41;12.67;;;12.27;;
2896;SDS011;1458;49.728;9.228;2023-07-20T10:05:12;12.90;;;12.50;;
2896;SDS011;1458;49.728;9.228;2023-07-20T10:07:43;13.10;;;12.70;;
2896;SDS011;1458;49.728;9.228;2023-07-20T10:10:14;13.00;;;12.60;;
2896;SDS011;1458;49.728;9.228;2023-07-20T10:12:44;13.20;;;12.80;;
2896;SDS011;1458;49.728;9.228;2023-07-20T10:15:20;13.00;;;12.60;;
2896;SDS011;1458;49.728;9.228;2023-07-20T10:17:59;13.67;;;13.27;;
2896;SDS011;1458;49.728;9.228;2023-07-20T10:20:34;13.73;;;13.33;;
2896;SDS011;1458;49.728;9.228;2023-07-20T10:23:06;13.33;;;12.93;;
2896;SDS011;1458;49.728;9.228;2023-07-20T10:25:34;13.63;;;13.23;;
2896;SDS011;1458;49.728;9.228;2023-07-20T10:28:04;13.03;;;12.63;;
2896;SDS011;1458;49.728;9.228;2023-07-20T10:30:32;13.07;;;12.67;;
2896;SDS011;1458;49.728;9.228;2023-07-20T10:33:01;12.80;;;12.40;;
2896;SDS011;1458;49.728;9.228;2023-07-20T10:35:30;13.43;;;13.03;;
2896;SDS011;1458;49.728;9.228;2023-07-20T10:38:18;13.73;;;13.33;;
2896;SDS011;1458;49.728;9.228;2023-07-20T10:40:53;13.10;;;12.70;;
2896;SDS011;1458;49.728;9.228;2023-07-20T10:43:21;13.60;;;13.20;;
2896;SDS011;1458;49.728;9.228;2023-07-20T10:45:49;13.93;;;13.50;;
2896;SDS011;1458;49.728;9.228;2023-07-20T10:48:19;13.40;;;13.00;;
2896;SDS011;1458;49.728;9.228;2023-07-20T10:53:39;13.30;;;12.90;;
2896;SDS011;1458;49.728;9.228;2023-07-20T10:56:08;13.87;;;13.37;;
2896;SDS011;1458;49.728;9.228;2023-07-20T10:58:41;13.40;;;13.00;;
2896;SDS011;1458;49.728;9.228;2023-07-20T11:01:08;13.30;;;12.90;;
2896;SDS011;1458;49.728;9.228;2023-07-20T11:03:41;13.37;;;12.97;;
2896;SDS011;1458;49.728;9.228;2023-07-20T11:09:07;13.40;;;13.00;;
2896;SDS011;1458;49.728;9.228;2023-07-20T11:11:40;13.53;;;13.13;;
2896;SDS011;1458;49.728;9.228;2023-07-20T11:14:09;13.30;;;12.90;;
2896;SDS011;1458;49.728;9.228;2023-07-20T11:16:47;13.20;;;12.80;;
2896;SDS011;1458;49.728;9.228;2023-07-20T11:19:17;13.30;;;12.90;;
2896;SDS011;1458;49.728;9.228;2023-07-20T11:21:49;13.40;;;13.00;;
2896;SDS011;1458;49.728;9.228;2023-07-20T11:24:19;13.60;;;13.10;;
2896;SDS011;1458;49.728;9.228;2023-07-20T11:26:47;13.00;;;12.60;;
2896;SDS011;1458;49.728;9.228;2023-07-20T11:29:16;13.90;;;13.40;;
2896;SDS011;1458;49.728;9.228;2023-07-20T11:31:47;13.80;;;13.30;;
2896;SDS011;1458;49.728;9.228;2023-07-20T11:34:15;13.20;;;12.80;;
2896;SDS011;1458;49.728;9.228;2023-07-20T11:36:44;13.97;;;13.47;;
2896;SDS011;1458;49.728;9.228;2023-07-20T11:39:16;14.03;;;13.53;;
2896;SDS011;1458;49.728;9.228;2023-07-20T11:41:46;14.00;;;13.50;;
2896;SDS011;1458;49.728;9.228;2023-07-20T11:44:15;13.70;;;13.27;;
2896;SDS011;1458;49.728;9.228;2023-07-20T11:46:43;13.83;;;13.33;;
2896;SDS011;1458;49.728;9.228;2023-07-20T11:49:11;13.80;;;13.30;;
2896;SDS011;1458;49.728;9.228;2023-07-20T11:51:39;13.80;;;13.30;;
2896;SDS011;1458;49.728;9.228;2023-07-20T11:54:08;13.60;;;13.10;;
2896;SDS011;1458;49.728;9.228;2023-07-20T11:56:36;13.80;;;13.30;;
2896;SDS011;1458;49.728;9.228;2023-07-20T11:59:10;13.80;;;13.30;;
2896;SDS011;1458;49.728;9.228;2023-07-20T12:01:38;13.20;;;12.80;;
2896;SDS011;1458;49.728;9.228;2023-07-20T12:04:05;13.50;;;13.00;;
2896;SDS011;1458;49.728;9.228;2023-07-20T12:06:33;13.73;;;13.23;;
2896;SDS011;1458;49.728;9.228;2023-07-20T12:09:00;13.10;;;12.70;;
2896;SDS011;1458;49.728;9.228;2023-07-20T12:11:36;13.60;;;13.10;;
2896;SDS011;1458;49.728;9.228;2023-07-20T12:14:06;13.63;;;13.23;;
2896;SDS011;1458;49.728;9.228;2023-07-20T12:16:35;14.10;;;13.60;;
2896;SDS011;1458;49.728;9.228;2023-07-20T12:19:04;13.30;;;12.90;;
2896;SDS011;1458;49.728;9.228;2023-07-20T12:21:33;13.57;;;13.07;;
2896;SDS011;1458;49.728;9.228;2023-07-20T12:24:03;14.07;;;13.57;;
2896;SDS011;1458;49.728;9.228;2023-07-20T12:26:31;14.10;;;13.60;;
2896;SDS011;1458;49.728;9.228;2023-07-20T12:29:01;13.60;;;13.10;;
2896;SDS011;1458;49.728;9.228;2023-07-20T12:31:30;13.50;;;13.00;;
2896;SDS011;1458;49.728;9.228;2023-07-20T12:34:02;13.63;;;13.13;;
2896;SDS011;1458;49.728;9.228;2023-07-20T12:36:30;13.73;;;13.23;;
2896;SDS011;1458;49.728;9.228;2023-07-20T12:38:58;13.80;;;13.30;;
2896;SDS011;1458;49.728;9.228;2023-07-20T12:41:26;13.40;;;12.90;;
2896;SDS011;1458;49.728;9.228;2023-07-20T12:43:54;13.70;;;13.20;;
2896;SDS011;1458;49.728;9.228;2023-07-20T12:46:24;14.00;;;13.50;;
2896;SDS011;1458;49.728;9.228;2023-07-20T12:48:54;13.63;;;13.13;;
2896;SDS011;1458;49.728;9.228;2023-07-20T12:51:22;13.47;;;13.07;;
2896;SDS011;1458;49.728;9.228;2023-07-20T12:53:50;13.73;;;13.23;;
2896;SDS011;1458;49.728;9.228;2023-07-20T12:56:17;13.33;;;12.93;;
2896;SDS011;1458;49.728;9.228;2023-07-20T12:58:45;13.23;;;12.83;;
2896;SDS011;1458;49.728;9.228;2023-07-20T13:01:15;13.43;;;13.03;;
2896;SDS011;1458;49.728;9.228;2023-07-20T13:03:44;13.63;;;13.13;;
2896;SDS011;1458;49.728;9.228;2023-07-20T13:06:12;14.00;;;13.50;;
2896;SDS011;1458;49.728;9.228;2023-07-20T13:08:40;13.30;;;12.90;;
2896;SDS011;1458;49.728;9.228;2023-07-20T13:11:07;13.27;;;12.87;;
2896;SDS011;1458;49.728;9.228;2023-07-20T13:13:35;13.20;;;12.80;;
2896;SDS011;1458;49.728;9.228;2023-07-20T13:16:03;13.20;;;12.80;;
2896;SDS011;1458;49.728;9.228;2023-07-20T13:18:31;13.43;;;13.03;;
2896;SDS011;1458;49.728;9.228;2023-07-20T13:20:59;13.43;;;13.03;;
2896;SDS011;1458;49.728;9.228;2023-07-20T13:23:28;13.20;;;12.80;;
2896;SDS011;1458;49.728;9.228;2023-07-20T13:25:56;13.17;;;12.77;;
2896;SDS011;1458;49.728;9.228;2023-07-20T13:28:23;13.67;;;13.17;;
2896;SDS011;1458;49.728;9.228;2023-07-20T13:30:51;12.87;;;12.47;;
2896;SDS011;1458;49.728;9.228;2023-07-20T13:33:18;13.00;;;12.60;;
2896;SDS011;1458;49.728;9.228;2023-07-20T13:35:46;13.30;;;12.90;;
2896;SDS011;1458;49.728;9.228;2023-07-20T13:38:15;13.10;;;12.70;;
2896;SDS011;1458;49.728;9.228;2023-07-20T13:40:43;13.47;;;13.07;;
2896;SDS011;1458;49.728;9.228;2023-07-20T13:43:11;13.17;;;12.77;;
2896;SDS011;1458;49.728;9.228;2023-07-20T13:45:38;13.33;;;12.93;;
2896;SDS011;1458;49.728;9.228;2023-07-20T13:48:06;13.10;;;12.70;;
2896;SDS011;1458;49.728;9.228;2023-07-20T13:50:34;13.60;;;13.10;;
2896;SDS011;1458;49.728;9.228;2023-07-20T13:53:01;13.20;;;12.80;;
2896;SDS011;1458;49.728;9.228;2023-07-20T13:55:30;13.57;;;13.10;;
2896;SDS011;1458;49.728;9.228;2023-07-20T13:57:59;13.93;;;13.43;;
2896;SDS011;1458;49.728;9.228;2023-07-20T14:00:26;13.43;;;13.03;;
2896;SDS011;1458;49.728;9.228;2023-07-20T14:02:58;13.23;;;12.83;;
2896;SDS011;1458;49.728;9.228;2023-07-20T14:05:25;12.87;;;12.47;;
2896;SDS011;1458;49.728;9.228;2023-07-20T14:07:53;13.23;;;12.83;;
2896;SDS011;1458;49.728;9.228;2023-07-20T14:10:21;13.20;;;12.80;;
2896;SDS011;1458;49.728;9.228;2023-07-20T14:12:50;13.43;;;13.03;;
2896;SDS011;1458;49.728;9.228;2023-07-20T14:15:18;13.70;;;13.20;;
2896;SDS011;1458;49.728;9.228;2023-07-20T14:17:46;13.00;;;12.60;;
2896;SDS011;1458;49.728;9.228;2023-07-20T14:20:13;13.67;;;13.27;;
2896;SDS011;1458;49.728;9.228;2023-07-20T14:22:40;12.90;;;12.50;;
2896;SDS011;1458;49.728;9.228;2023-07-20T14:25:09;13.63;;;13.17;;
2896;SDS011;1458;49.728;9.228;2023-07-20T14:27:37;13.20;;;12.80;;
2896;SDS011;1458;49.728;9.228;2023-07-20T14:30:07;13.67;;;13.27;;
2896;SDS011;1458;49.728;9.228;2023-07-20T14:32:35;13.27;;;12.87;;
2896;SDS011;1458;49.728;9.228;2023-07-20T14:35:03;13.23;;;12.83;;
2896;SDS011;1458;49.728;9.228;2023-07-20T14:37:32;13.30;;;12.90;;
2896;SDS011;1458;49.728;9.228;2023-07-20T14:40:00;13.30;;;12.90;;
2896;SDS011;1458;49.728;9.228;2023-07-20T14:42:30;13.97;;;13.47;;
2896;SDS011;1458;49.728;9.228;2023-07-20T14:44:58;13.80;;;13.30;;
2896;SDS011;1458;49.728;9.228;2023-07-20T14:47:27;14.00;;;13.50;;
2896;SDS011;1458;49.728;9.228;2023-07-20T14:49:57;13.80;;;13.30;;
2896;SDS011;1458;49.728;9.228;2023-07-20T14:52:24;13.83;;;13.33;;
2896;SDS011;1458;49.728;9.228;2023-07-20T14:54:52;13.80;;;13.30;;
2896;SDS011;1458;49.728;9.228;2023-07-20T14:57:20;14.10;;;13.60;;
2896;SDS011;1458;49.728;9.228;2023-07-20T14:59:48;14.00;;;13.50;;
2896;SDS011;1458;49.728;9.228;2023-07-20T15:02:16;14.13;;;13.63;;
2896;SDS011;1458;49.728;9.228;2023-07-20T15:04:48;14.33;;;13.83;;
2896;SDS011;1458;49.728;9.228;2023-07-20T15:07:16;14.10;;;13.60;;
2896;SDS011;1458;49.728;9.228;2023-07-20T15:09:45;13.90;;;13.40;;
2896;SDS011;1458;49.728;9.228;2023-07-20T15:12:12;13.90;;;13.40;;
2896;SDS011;1458;49.728;9.228;2023-07-20T15:14:40;14.53;;;14.03;;
2896;SDS011;1458;49.728;9.228;2023-07-20T15:17:10;14.23;;;13.73;;
2896;SDS011;1458;49.728;9.228;2023-07-20T15:19:37;13.80;;;13.30;;